x

West Sea Otter (46204) Wave Buoy

3:00 - Sun 4th Dec 2016 All times are PST. -8 hours from GMT.

  • Sig Wave height 10.2ft
  • Peak Period 14s
  • Wind
    11mph, 16mph gusts
  • Sea Temp 52°f
  • Ar Temp 42°f
  • Sea Pressure 1015.5mb
  • West Sea Otter
  • West Sea Otter

More Historic Weather Station data

Upgrade to MSW Pro to gain access to the past 30 days of data for over 8000 Wavebouys and Weather Stations around the globe.

Join Pro

Comparision Forecast

View Surf forecast
   
Dom 12/04 3:00 10ft 14s 11 16 mph 1015.5mb 52f 42f
2:00 10ft 11s 18 22 mph 1015.5mb 52f 42f
1:00 11ft 10s 11 16 mph 1015.7mb 52f 40f
12:00 12ft 14s 16 22 mph 1016.2mb 52f 41f
11:00 11ft 14s 25 31 mph 1016.9mb 52f 42f
10:00 10.5ft 13s 20 25 mph 1017.3mb 52f 43f
9:00 10.5ft 14s 9 16 mph 1018.1mb 52f 40f
8:00 11ft 11s 16 20 mph 1018mb 52f 40f
7:00 11.5ft 14s 11 16 mph 1018.3mb 52f 40f
6:00 11.5ft 14s 11 16 mph 1018.6mb 52f 41f
5:00 13ft 11s 25 29 mph 1018.6mb 52f 40f
4:00 12.5ft 14s 18 27 mph 1018.1mb 52f 45f
3:00 12.5ft 15s 20 25 mph 1018.5mb 52f 43f
2:00 13ft 9s 22 29 mph 1018.2mb 52f 45f
1:00 13ft 14s 27 34 mph 1018mb 52f 45f
12:00 13ft 14s 25
mph
1017.6mb 52f 44f
Sáb 12/03 10:00 14ft 15s 22 27 mph 1017.1mb 52f 44f
9:00 13ft 14s 18 25 mph 1016.9mb 52f 42f
8:00 13.5ft 15s 22 27 mph 1016.7mb 52f 43f
7:00 12.5ft 14s 27 34 mph 1016.9mb 52f 42f
6:00 13.5ft 14s 20 27 mph 1017.2mb 52f 42f
5:00 13.5ft 14s 20 29 mph 1017.3mb 52f 44f
4:00 13ft 15s 16 27 mph 1017.8mb 52f 44f
3:00 14ft 14s 20 29 mph 1018.1mb 52f 43f
2:00 15ft 15s 20 27 mph 1018.1mb 52f 44f
1:00 14.5ft 16s 18 29 mph 1018.5mb 52f 44f
12:00 14.5ft 13s 25 34 mph 1018.6mb 52f 44f
11:00 15ft 14s 18 34 mph 1019.1mb 52f 44f
10:00 16ft 13s 27 34 mph 1019.2mb 52f 43f
9:00 15.5ft 14s 25 29 mph 1018.4mb 52f 46f
8:00 16.5ft 15s 18 22 mph 1018.5mb 52f 45f
7:00 17.5ft 15s 20 27 mph 1018.2mb 52f 46f
6:00 16.5ft 16s 29 36 mph 1018mb 52f 45f
5:00 18.5ft 16s 27 34 mph 1018.1mb 52f 45f
4:00 19ft 16s 31 40 mph 1017.1mb 52f 47f
3:00 19ft 17s 31 38 mph 1016.7mb 52f 48f
2:00 19.5ft 17s 29 36 mph 1016.3mb 52f 48f
1:00 17.5ft 16s 27 40 mph 1016.5mb 52f 47f
12:00 18ft 17s 27 34 mph 1016.2mb 52f 48f
Sex 12/02 11:00 19.5ft 16s 27 36 mph 1015.8mb 52f 49f
10:00 19.5ft 17s 22 31 mph 1015.7mb 52f 50f
9:00 19.5ft 17s 22 29 mph 1015.5mb 52f 49f
8:00 18.5ft 17s 22 29 mph 1015.2mb 52f 49f
7:00 18.5ft 17s 22 31 mph 1014.8mb 52f 50f
6:00 20.5ft 17s 25 34 mph 1014mb 52f 50f
5:00 19.5ft 16s 29 38 mph 1013.4mb 52f 50f
4:00 19ft 15s 27 34 mph 1013.1mb 52f 50f
3:00 17.5ft 14s 27 36 mph 1012.3mb 52f 50f
2:00 17ft 14s 27 34 mph 1012.3mb 52f 50f
1:00 15.5ft 12s 27 34 mph 1012mb 52f 50f
12:00 14.5ft 13s 22 31 mph 1011.9mb 52f 50f
11:00 13ft 12s 27 34 mph 1011.4mb 52f 51f
10:00 12ft 12s 22 27 mph 1011.5mb 52f 51f
9:00 13ft 12s 20 27 mph 1010.6mb 52f 51f
8:00 13ft 12s 20 25 mph 1010.3mb 52f 50f
7:00 14ft 7s 27 31 mph 1009.3mb 52f 52f
6:00  -   -  22
mph
1008.6mb 52f 51f
5:00 15.5ft 8s 27 36 mph 1007.7mb 52f 52f
4:00 16ft 8s 34 45 mph 1007.4mb 52f 51f
3:00 16.5ft 8s 36 47 mph 1007.2mb 52f 51f
2:00 15ft 8s 38 45 mph 1008.6mb 52f 47f
1:00 15ft 7s 38 45 mph 1008.8mb 52f 47f
12:00 13ft 7s 38 47 mph 1009.9mb 52f 47f
Qui 12/01 11:00 14ft 8s 36 45 mph 1012.5mb 52f 47f
10:00 12.5ft 7s 36 45 mph 1013.6mb 52f 47f
9:00 12ft 12s 34 43 mph 1014.5mb 52f 48f
8:00 11.5ft 12s 31 38 mph 1015.9mb 52f 48f
7:00 11ft 11s 29 36 mph 1016.2mb 52f 48f
6:00 10.5ft 12s 29 36 mph 1017mb 52f 48f
5:00 11ft 12s 27 31 mph 1017.7mb 52f 48f
4:00 11ft 12s 25 29 mph 1018.3mb 52f 48f
3:00 11ft 11s 25 29 mph 1017.3mb 52f 48f
2:00 12ft 12s 25 31 mph 1016.7mb 52f 48f
1:00 11.5ft 11s 4 9 mph 1016.8mb 52f 52f
12:00 11.5ft 7s 13 18 mph 1016.9mb 52f 52f
11:00 12ft 6s 18 27 mph 1016.4mb 52f 47f
9:00 10ft 10s 31 40 mph 1014.5mb 52f 46f
8:00 10ft 12s 29 36 mph 1014.9mb 52f 47f
7:00 10.5ft 12s 27 34 mph 1015.5mb 52f 47f
6:00 10ft 10s 25 29 mph 1016.2mb 52f 48f
5:00 9.5ft 12s 25 31 mph 1016.9mb 52f 48f
4:00 9.5ft 12s 25 29 mph 1017.1mb 52f 49f
3:00 10ft 13s 22 27 mph 1017.5mb 52f 48f
2:00 10ft 12s 20 25 mph 1018mb 52f 49f
1:00 10ft 12s 16
mph
1018.7mb 52f 49f